Time;durP1;ratioP1;P1;durP2;ratioP2;P2;SDS_P1;SDS_P2;PMS_P1;PMS_P2;Temp;Humidity;BMP_temperature;BMP_pressure;BME280_temperature;BME280_humidity;BME280_pressure;Samples;Min_cycle;Max_cycle;Signal;HPM_P1;HPM_P2
2021/06/07 00:01:18;;;;;;;1.50;1.00;;;17.70;98.20;;;;;;5018868;28;20482;-77
2021/06/07 00:03:45;;;;;;;1.50;0.90;;;17.70;98.20;;;;;;5025272;28;20491;-77
2021/06/07 00:06:13;;;;;;;1.50;0.90;;;17.70;98.20;;;;;;5017670;28;20865;-78
2021/06/07 00:08:39;;;;;;;1.50;1.00;;;17.70;98.20;;;;;;5032507;28;20925;-77
2021/06/07 00:11:05;;;;;;;1.50;1.00;;;17.70;98.20;;;;;;5018078;28;20950;-77
2021/06/07 00:13:33;;;;;;;1.50;0.97;;;17.70;98.20;;;;;;5031881;28;20927;-77
2021/06/07 00:15:59;;;;;;;1.50;1.00;;;17.60;98.20;;;;;;5018754;28;20463;-77
2021/06/07 00:18:26;;;;;;;1.50;0.90;;;17.60;98.20;;;;;;5033264;28;20626;-77
2021/06/07 00:20:57;;;;;;;1.50;0.90;;;17.60;98.20;;;;;;5019640;28;20758;-77
2021/06/07 00:23:24;;;;;;;1.50;0.90;;;17.60;98.20;;;;;;5038025;28;20459;-77
2021/06/07 00:25:53;;;;;;;1.50;1.00;;;17.60;98.20;;;;;;5020655;28;20474;-76
2021/06/07 00:28:20;;;;;;;1.50;0.90;;;17.60;98.20;;;;;;5029198;28;20475;-77
2021/06/07 00:30:47;;;;;;;1.50;1.00;;;17.50;98.20;;;;;;5023161;28;20478;-77
2021/06/07 00:33:13;;;;;;;1.60;1.20;;;17.50;98.20;;;;;;5037305;28;20467;-76
2021/06/07 00:35:40;;;;;;;1.50;0.90;;;17.50;98.20;;;;;;5029609;28;20467;-77
2021/06/07 00:38:06;;;;;;;1.50;0.90;;;17.50;98.20;;;;;;5024250;28;20832;-77
2021/06/07 00:40:35;;;;;;;1.53;0.93;;;17.50;98.20;;;;;;5032350;28;20487;-77
2021/06/07 00:43:01;;;;;;;1.53;1.00;;;17.50;98.20;;;;;;5038543;28;20478;-78
2021/06/07 00:45:30;;;;;;;1.50;0.90;;;17.50;98.20;;;;;;5029330;28;20506;-77
2021/06/07 00:47:58;;;;;;;1.50;0.90;;;17.50;98.20;;;;;;5026396;28;20487;-77
2021/06/07 00:50:31;;;;;;;1.53;1.00;;;17.50;98.20;;;;;;5031405;28;20463;-77
2021/06/07 00:53:02;;;;;;;1.50;1.00;;;17.40;98.20;;;;;;5037245;28;20478;-78
2021/06/07 00:55:30;;;;;;;1.50;0.93;;;17.40;98.20;;;;;;5031866;28;20587;-77
2021/06/07 00:57:58;;;;;;;1.50;0.90;;;17.40;98.20;;;;;;5025542;28;20479;-78
2021/06/07 01:00:26;;;;;;;1.50;1.00;;;17.40;98.20;;;;;;5032677;28;20748;-78
2021/06/07 01:02:53;;;;;;;1.50;0.90;;;17.40;98.20;;;;;;5027330;28;20698;-77
2021/06/07 01:05:20;;;;;;;1.53;1.00;;;17.40;98.20;;;;;;5029998;28;20768;-78
2021/06/07 01:07:46;;;;;;;1.50;1.00;;;17.30;98.20;;;;;;5023764;28;20486;-77
2021/06/07 01:10:14;;;;;;;1.50;0.90;;;17.30;98.20;;;;;;5026358;28;20493;-78
2021/06/07 01:12:40;;;;;;;1.50;1.00;;;17.30;98.20;;;;;;5031035;28;20528;-77
2021/06/07 01:15:10;;;;;;;1.50;0.90;;;17.20;98.20;;;;;;5028436;28;20509;-78
2021/06/07 01:17:36;;;;;;;1.50;0.97;;;17.20;98.20;;;;;;5028055;28;20572;-77
2021/06/07 01:20:05;;;;;;;1.50;1.00;;;17.20;98.20;;;;;;5031427;28;20550;-77
2021/06/07 01:22:33;;;;;;;1.50;0.90;;;17.20;98.20;;;;;;5029083;28;20487;-77
2021/06/07 01:25:00;;;;;;;1.50;0.90;;;17.10;98.20;;;;;;5028230;28;20490;-78
2021/06/07 01:27:26;;;;;;;1.50;1.00;;;17.10;98.20;;;;;;5026514;28;20490;-76
2021/06/07 01:29:52;;;;;;;1.50;1.00;;;17.10;98.20;;;;;;5033549;28;20459;-76
2021/06/07 01:32:19;;;;;;;1.50;1.00;;;17.10;98.20;;;;;;5031335;28;20482;-76
2021/06/07 01:34:45;;;;;;;1.50;0.90;;;17.00;98.20;;;;;;5032327;28;20536;-77
2021/06/07 01:37:11;;;;;;;1.50;1.00;;;17.00;98.20;;;;;;5019083;28;20828;-76
2021/06/07 01:39:39;;;;;;;1.50;1.00;;;17.00;98.20;;;;;;5027979;28;20468;-75
2021/06/07 01:42:06;;;;;;;1.50;0.97;;;16.90;98.20;;;;;;5026316;28;20486;-77
2021/06/07 01:44:32;;;;;;;1.50;1.00;;;16.90;98.20;;;;;;5032562;28;20513;-78
2021/06/07 01:46:58;;;;;;;1.53;1.00;;;16.90;98.20;;;;;;5022868;28;20494;-76
2021/06/07 01:49:25;;;;;;;1.50;0.90;;;16.90;98.20;;;;;;5032105;28;20463;-76
2021/06/07 01:51:51;;;;;;;1.50;0.90;;;16.90;98.20;;;;;;5025088;28;20859;-77
2021/06/07 01:54:17;;;;;;;1.53;1.00;;;16.90;98.20;;;;;;5038022;28;20491;-77
2021/06/07 01:56:45;;;;;;;1.50;0.90;;;16.90;98.20;;;;;;5022897;28;20483;-77
2021/06/07 02:01:48;;;;;;;1.50;0.93;;;16.80;98.20;;;;;;5054998;28;20469;-80
2021/06/07 02:04:14;;;;;;;1.53;0.97;;;16.80;98.20;;;;;;5067552;28;20459;-80
2021/06/07 02:06:41;;;;;;;1.50;1.00;;;16.80;98.20;;;;;;5054900;28;20494;-79
2021/06/07 02:09:07;;;;;;;1.50;1.00;;;16.80;98.20;;;;;;5058833;28;20519;-80
2021/06/07 02:11:33;;;;;;;1.50;0.90;;;16.80;98.20;;;;;;5053992;28;20524;-79
2021/06/07 02:14:03;;;;;;;1.60;1.10;;;16.70;98.20;;;;;;5061168;28;20538;-80
2021/06/07 02:16:32;;;;;;;1.50;0.90;;;16.70;98.20;;;;;;5059127;28;20577;-80
2021/06/07 02:18:59;;;;;;;1.50;0.90;;;16.70;98.20;;;;;;5064427;28;20494;-80
2021/06/07 02:21:27;;;;;;;1.50;1.00;;;16.60;98.20;;;;;;5056231;28;20485;-80
2021/06/07 02:23:54;;;;;;;1.50;1.00;;;16.60;98.20;;;;;;5071325;28;20466;-80
2021/06/07 02:26:21;;;;;;;1.53;1.00;;;16.60;98.20;;;;;;5047083;28;20537;-79
2021/06/07 02:28:49;;;;;;;1.50;0.90;;;16.60;98.20;;;;;;5066892;28;20473;-80
2021/06/07 02:31:19;;;;;;;1.57;1.00;;;16.60;98.20;;;;;;5047040;28;20555;-80
2021/06/07 02:33:48;;;;;;;1.53;1.00;;;16.50;98.20;;;;;;5065357;28;20474;-80
2021/06/07 02:36:15;;;;;;;1.53;1.00;;;16.50;98.20;;;;;;5052095;28;20499;-80
2021/06/07 02:38:41;;;;;;;1.50;0.90;;;16.50;98.20;;;;;;5064690;28;20535;-81
2021/06/07 02:41:08;;;;;;;1.50;1.00;;;16.50;98.20;;;;;;5050804;28;20489;-80
2021/06/07 02:43:34;;;;;;;1.50;1.00;;;16.50;98.20;;;;;;5071408;28;20461;-81
2021/06/07 02:46:00;;;;;;;1.50;1.00;;;16.50;98.20;;;;;;5049188;28;21083;-80
2021/06/07 02:48:28;;;;;;;1.50;1.00;;;16.50;98.20;;;;;;5075400;28;20452;-80
2021/06/07 02:50:55;;;;;;;1.50;1.00;;;16.50;98.20;;;;;;5049600;28;20496;-80
2021/06/07 02:53:21;;;;;;;1.53;0.93;;;16.50;98.20;;;;;;5076405;28;20526;-81
2021/06/07 02:55:49;;;;;;;1.50;0.93;;;16.50;98.20;;;;;;5044964;28;20466;-80
2021/06/07 02:58:17;;;;;;;1.53;0.90;;;16.50;98.20;;;;;;5074811;28;20534;-80
2021/06/07 03:00:45;;;;;;;1.57;1.00;;;16.50;98.20;;;;;;5053440;28;20499;-79
2021/06/07 03:03:13;;;;;;;1.50;1.00;;;16.50;98.20;;;;;;5051502;28;20458;-81
2021/06/07 03:05:41;;;;;;;1.50;1.00;;;16.50;98.20;;;;;;5052855;28;20456;-80
2021/06/07 03:08:10;;;;;;;1.53;1.00;;;16.50;98.20;;;;;;5066620;28;20478;-80
2021/06/07 03:10:36;;;;;;;1.50;0.90;;;16.50;98.20;;;;;;5052697;28;20482;-80
2021/06/07 03:13:03;;;;;;;1.57;1.00;;;16.40;98.20;;;;;;5066331;28;20489;-81
2021/06/07 03:15:29;;;;;;;1.50;1.00;;;16.40;98.20;;;;;;5051206;28;20455;-80
2021/06/07 03:17:57;;;;;;;1.50;1.00;;;16.40;98.20;;;;;;5064401;28;20568;-80
2021/06/07 03:20:26;;;;;;;1.50;1.00;;;16.40;98.20;;;;;;5057961;28;20504;-80
2021/06/07 03:22:55;;;;;;;1.50;0.97;;;16.40;98.20;;;;;;5065188;28;20537;-83
2021/06/07 03:25:21;;;;;;;1.57;1.00;;;16.30;98.20;;;;;;5049393;28;20459;-80
2021/06/07 03:31:11;;;;;;;1.60;1.10;;;16.30;98.20;;;;;;5054996;22;20508;-79
2021/06/07 03:33:37;;;;;;;1.57;1.00;;;16.20;98.20;;;;;;5051969;28;20522;-77
2021/06/07 03:36:05;;;;;;;1.50;1.10;;;16.20;98.20;;;;;;5050153;28;20524;-77
2021/06/07 03:38:33;;;;;;;1.50;1.00;;;16.20;98.20;;;;;;5065701;28;20859;-77
2021/06/07 03:41:00;;;;;;;1.50;1.00;;;16.10;98.20;;;;;;5041674;28;20515;-77
2021/06/07 03:43:30;;;;;;;1.50;1.00;;;16.10;98.20;;;;;;5033234;28;20462;-77
2021/06/07 03:45:57;;;;;;;1.50;1.00;;;16.00;98.20;;;;;;5037232;28;20519;-77
2021/06/07 03:48:24;;;;;;;1.50;1.00;;;16.00;98.20;;;;;;5032486;28;20796;-77
2021/06/07 03:50:50;;;;;;;1.57;1.00;;;16.00;98.20;;;;;;5037910;28;20478;-77
2021/06/07 03:53:17;;;;;;;1.50;0.90;;;15.90;98.20;;;;;;5048179;22;20900;-78
2021/06/07 03:55:45;;;;;;;1.57;1.00;;;15.90;98.20;;;;;;5058913;28;20485;-80
2021/06/07 03:58:11;;;;;;;1.57;1.00;;;15.90;98.20;;;;;;5037827;28;20564;-80
2021/06/07 04:00:39;;;;;;;1.50;1.00;;;15.90;98.20;;;;;;5065950;28;20478;-80
2021/06/07 04:03:07;;;;;;;1.60;1.00;;;15.90;98.20;;;;;;5053624;28;20557;-80
2021/06/07 04:05:34;;;;;;;1.50;1.00;;;15.90;98.20;;;;;;5066007;28;21075;-80
2021/06/07 04:08:01;;;;;;;1.50;1.00;;;15.90;98.20;;;;;;5034934;28;20491;-79
2021/06/07 04:10:28;;;;;;;1.57;1.00;;;15.90;98.20;;;;;;5066419;28;20459;-80
2021/06/07 04:12:56;;;;;;;1.50;1.00;;;15.90;98.20;;;;;;5041707;28;20505;-80
2021/06/07 04:15:24;;;;;;;1.60;1.40;;;16.00;98.20;;;;;;5069398;28;20500;-80
2021/06/07 04:17:52;;;;;;;1.57;1.00;;;16.00;98.20;;;;;;5042372;28;20485;-80
2021/06/07 04:20:21;;;;;;;1.50;1.00;;;16.00;98.20;;;;;;5068335;28;20565;-80
2021/06/07 04:22:47;;;;;;;1.50;1.00;;;16.00;98.20;;;;;;5042459;28;20486;-79
2021/06/07 04:25:15;;;;;;;1.57;1.00;;;16.00;98.20;;;;;;5070688;28;20478;-80
2021/06/07 04:27:43;;;;;;;1.50;1.00;;;16.10;98.20;;;;;;5042305;28;20475;-79
2021/06/07 04:30:14;;;;;;;1.50;1.00;;;16.10;98.20;;;;;;5067043;28;20458;-80
2021/06/07 04:32:41;;;;;;;1.53;1.00;;;16.20;98.20;;;;;;5044002;28;20514;-80
2021/06/07 04:35:09;;;;;;;1.90;1.53;;;16.20;98.20;;;;;;5067129;28;20523;-80
2021/06/07 04:37:39;;;;;;;1.50;1.00;;;16.30;98.20;;;;;;5049516;28;20475;-80
2021/06/07 04:40:07;;;;;;;1.50;0.97;;;16.40;98.20;;;;;;5069406;28;20492;-79
2021/06/07 04:42:33;;;;;;;1.57;0.90;;;16.40;98.20;;;;;;5043807;28;20513;-80
2021/06/07 04:45:00;;;;;;;1.50;0.90;;;16.50;98.20;;;;;;5066744;28;20470;-79
2021/06/07 04:47:28;;;;;;;1.53;1.00;;;16.60;98.20;;;;;;5045061;28;20486;-79
2021/06/07 04:49:54;;;;;;;1.57;1.00;;;16.60;98.20;;;;;;5065581;28;20819;-79
2021/06/07 04:52:22;;;;;;;1.50;0.90;;;16.60;98.20;;;;;;5043044;28;21043;-80
2021/06/07 04:54:48;;;;;;;1.57;1.00;;;16.70;98.20;;;;;;5065774;28;20482;-80
2021/06/07 04:57:15;;;;;;;1.57;0.97;;;16.70;98.20;;;;;;5045485;28;20510;-80
2021/06/07 04:59:41;;;;;;;1.57;1.00;;;16.70;98.20;;;;;;5061156;28;20466;-80
2021/06/07 05:02:08;;;;;;;1.50;1.00;;;16.70;98.20;;;;;;5043736;28;20486;-80
2021/06/07 05:04:35;;;;;;;1.50;0.90;;;16.80;98.20;;;;;;5060606;28;20539;-80
2021/06/07 05:07:02;;;;;;;1.50;1.00;;;16.80;98.20;;;;;;5052432;28;20489;-80
2021/06/07 05:09:28;;;;;;;2.10;1.60;;;16.90;98.20;;;;;;5061824;28;20910;-81
2021/06/07 05:11:55;;;;;;;1.50;0.90;;;16.90;98.20;;;;;;5049079;28;20479;-80
2021/06/07 05:14:21;;;;;;;1.50;0.97;;;17.00;98.20;;;;;;5060365;28;20786;-80
2021/06/07 05:16:47;;;;;;;1.50;1.00;;;17.00;98.20;;;;;;5049628;28;20495;-81
2021/06/07 05:19:13;;;;;;;1.50;1.00;;;17.00;98.20;;;;;;5060026;28;20466;-80
2021/06/07 05:21:41;;;;;;;1.53;1.00;;;17.10;98.20;;;;;;5046282;28;20487;-80
2021/06/07 05:24:08;;;;;;;1.50;1.00;;;17.00;98.20;;;;;;5049326;28;20479;-80
2021/06/07 05:26:35;;;;;;;1.50;1.00;;;17.00;98.20;;;;;;5045513;28;20479;-82
2021/06/07 05:29:01;;;;;;;1.57;0.90;;;17.00;98.20;;;;;;5050738;28;20953;-83
2021/06/07 05:31:27;;;;;;;1.50;0.90;;;17.10;98.20;;;;;;5046481;28;20486;-82
2021/06/07 05:33:54;;;;;;;1.50;1.00;;;17.10;98.20;;;;;;5045742;28;20505;-83
2021/06/07 05:36:20;;;;;;;1.50;0.90;;;17.20;98.20;;;;;;5042660;28;20534;-83
2021/06/07 05:38:48;;;;;;;1.60;1.20;;;17.20;98.20;;;;;;5047792;28;20468;-82
2021/06/07 05:41:14;;;;;;;1.50;1.00;;;17.20;98.20;;;;;;5041193;28;20684;-83
2021/06/07 05:43:41;;;;;;;1.50;0.90;;;17.30;98.20;;;;;;5053519;28;20976;-84
2021/06/07 05:46:07;;;;;;;1.50;1.00;;;17.30;98.20;;;;;;5042045;28;20470;-84
2021/06/07 05:48:33;;;;;;;1.53;0.97;;;17.30;98.20;;;;;;5042935;28;20488;-84
2021/06/07 05:51:00;;;;;;;1.50;0.90;;;17.30;98.20;;;;;;5043207;28;20528;-84
2021/06/07 05:53:26;;;;;;;1.50;0.90;;;17.40;98.20;;;;;;5036506;28;20478;-83
2021/06/07 05:55:54;;;;;;;1.50;1.00;;;17.40;98.20;;;;;;5045110;28;20553;-84
2021/06/07 05:58:21;;;;;;;1.50;0.97;;;17.40;98.20;;;;;;5051034;28;20534;-84
2021/06/07 06:00:52;;;;;;;1.50;0.90;;;17.50;98.20;;;;;;5041836;28;20474;-84
2021/06/07 06:03:19;;;;;;;1.53;0.90;;;17.60;98.20;;;;;;5048735;28;20540;-82
2021/06/07 06:05:45;;;;;;;1.50;1.10;;;17.60;98.20;;;;;;5051150;28;20465;-83
2021/06/07 06:08:12;;;;;;;1.50;1.00;;;17.70;98.20;;;;;;5022493;28;20508;-83
2021/06/07 06:10:40;;;;;;;1.57;1.00;;;17.80;98.20;;;;;;5050040;28;20462;-83
2021/06/07 06:13:08;;;;;;;1.50;1.00;;;17.90;98.20;;;;;;5038017;28;20490;-83
2021/06/07 06:15:34;;;;;;;1.50;0.90;;;17.90;98.20;;;;;;5049894;28;20942;-83
2021/06/07 06:18:01;;;;;;;1.50;0.90;;;18.00;98.20;;;;;;5043207;28;20482;-83
2021/06/07 06:20:30;;;;;;;1.50;1.00;;;18.00;98.20;;;;;;5052782;28;20980;-83
2021/06/07 06:22:57;;;;;;;1.50;1.00;;;18.00;98.20;;;;;;5029752;28;20481;-83
2021/06/07 06:25:23;;;;;;;1.57;1.00;;;18.00;98.20;;;;;;5052361;28;20543;-82
2021/06/07 06:27:50;;;;;;;1.53;0.90;;;18.00;98.20;;;;;;5025191;28;20489;-83
2021/06/07 06:30:22;;;;;;;1.50;1.00;;;18.00;98.20;;;;;;5049456;28;20466;-83
2021/06/07 06:32:52;;;;;;;1.50;0.90;;;18.00;98.20;;;;;;5036429;28;20486;-81
2021/06/07 06:35:18;;;;;;;1.50;0.90;;;18.00;98.20;;;;;;5049442;28;20493;-83
2021/06/07 06:37:45;;;;;;;1.50;0.90;;;18.00;98.20;;;;;;5039191;28;20494;-82
2021/06/07 06:40:16;;;;;;;1.53;0.90;;;18.10;98.20;;;;;;5049597;28;20799;-82
2021/06/07 06:42:43;;;;;;;1.53;1.00;;;18.10;98.20;;;;;;5020972;28;20881;-82
2021/06/07 06:45:11;;;;;;;1.57;0.90;;;18.10;98.20;;;;;;5049082;28;20815;-83
2021/06/07 06:47:38;;;;;;;1.50;0.90;;;18.20;98.20;;;;;;5026651;28;20482;-82
2021/06/07 06:50:07;;;;;;;1.53;1.00;;;18.30;98.20;;;;;;5051354;28;20458;-83
2021/06/07 06:52:33;;;;;;;1.50;0.90;;;18.40;98.20;;;;;;5028101;28;20483;-83
2021/06/07 06:55:00;;;;;;;1.50;1.00;;;18.40;98.20;;;;;;5051754;28;20494;-83
2021/06/07 06:57:26;;;;;;;1.50;1.00;;;18.50;98.20;;;;;;5041445;28;20593;-83
2021/06/07 06:59:52;;;;;;;1.53;0.90;;;18.50;98.20;;;;;;5056011;28;20466;-83
2021/06/07 07:02:19;;;;;;;1.50;0.90;;;18.50;98.20;;;;;;5032614;28;20597;-83
2021/06/07 07:04:47;;;;;;;1.60;1.10;;;18.50;98.20;;;;;;5057193;28;20492;-83
2021/06/07 07:07:13;;;;;;;1.50;0.90;;;18.60;98.20;;;;;;5048899;28;20815;-83
2021/06/07 07:09:42;;;;;;;1.50;0.90;;;18.70;98.20;;;;;;5061560;28;20465;-84
2021/06/07 07:12:09;;;;;;;1.50;1.00;;;18.70;98.20;;;;;;5037974;28;20478;-83
2021/06/07 07:14:36;;;;;;;1.50;0.90;;;18.80;98.20;;;;;;5050318;28;20481;-83
2021/06/07 07:17:02;;;;;;;1.50;0.90;;;18.80;98.20;;;;;;5039798;28;20565;-84
2021/06/07 07:19:28;;;;;;;1.57;1.00;;;19.00;98.20;;;;;;5049287;28;20472;-83
2021/06/07 07:21:56;;;;;;;1.53;0.90;;;19.10;98.20;;;;;;5032222;28;20862;-82
2021/06/07 07:24:22;;;;;;;1.50;0.90;;;19.10;98.20;;;;;;5045370;28;20479;-82
2021/06/07 07:26:48;;;;;;;1.60;0.90;;;19.20;98.20;;;;;;5043988;28;20482;-84
2021/06/07 07:29:15;;;;;;;1.80;1.43;;;19.10;98.20;;;;;;5054500;28;20466;-83
2021/06/07 07:31:41;;;;;;;1.50;0.90;;;19.20;98.20;;;;;;5033822;28;20550;-82
2021/06/07 07:34:07;;;;;;;1.50;0.90;;;19.10;98.20;;;;;;5040989;28;20482;-82
2021/06/07 07:36:34;;;;;;;1.53;0.90;;;19.10;98.20;;;;;;5033680;28;20507;-82
2021/06/07 07:39:01;;;;;;;1.50;1.00;;;19.20;98.20;;;;;;5039215;28;20459;-82
2021/06/07 07:41:28;;;;;;;1.50;0.90;;;19.30;98.20;;;;;;5039749;28;20478;-81
2021/06/07 07:43:54;;;;;;;8.33;1.73;;;19.40;98.20;;;;;;5045022;28;20482;-81
2021/06/07 07:46:21;;;;;;;1.50;0.90;;;19.40;98.20;;;;;;5034696;28;20519;-82
2021/06/07 07:48:47;;;;;;;1.50;0.90;;;19.50;98.20;;;;;;5038806;28;20470;-83
2021/06/07 07:51:13;;;;;;;1.53;0.90;;;19.60;98.20;;;;;;5037087;28;20483;-82
2021/06/07 07:53:40;;;;;;;1.70;1.50;;;19.50;98.20;;;;;;5038025;28;21161;-83
2021/06/07 07:56:25;;;;;;;1.97;1.73;;;19.50;98.20;;;;;;5040511;28;20477;-84
2021/06/07 07:58:51;;;;;;;1.50;0.90;;;19.60;98.20;;;;;;5044044;28;20531;-82
2021/06/07 08:01:18;;;;;;;1.50;0.90;;;19.60;98.20;;;;;;5037204;28;20486;-81
2021/06/07 08:03:44;;;;;;;2.73;1.87;;;19.60;98.20;;;;;;5040724;28;20486;-82
2021/06/07 08:06:10;;;;;;;1.50;0.90;;;19.60;98.20;;;;;;5042107;28;20484;-82
2021/06/07 08:08:37;;;;;;;1.50;0.90;;;19.70;98.20;;;;;;5049913;28;20470;-82
2021/06/07 08:11:03;;;;;;;1.50;0.90;;;19.70;98.20;;;;;;5039514;28;20894;-82
2021/06/07 08:13:31;;;;;;;1.57;1.00;;;19.80;98.20;;;;;;5045736;28;20490;-82
2021/06/07 08:15:57;;;;;;;1.60;1.00;;;19.80;98.20;;;;;;5040145;28;20607;-83
2021/06/07 08:18:24;;;;;;;1.60;1.00;;;19.80;98.20;;;;;;5049479;28;20466;-83
2021/06/07 08:20:51;;;;;;;1.50;0.90;;;19.80;98.20;;;;;;5040229;28;20468;-83
2021/06/07 08:23:17;;;;;;;1.57;1.07;;;19.90;98.20;;;;;;5049489;28;20458;-82
2021/06/07 08:25:44;;;;;;;1.50;0.90;;;19.90;98.20;;;;;;5052792;28;20530;-83
2021/06/07 08:28:10;;;;;;;1.50;1.00;;;20.00;98.20;;;;;;5023785;28;20470;-84
2021/06/07 08:30:38;;;;;;;1.53;0.90;;;20.10;98.20;;;;;;5049448;28;20461;-84
2021/06/07 08:33:04;;;;;;;1.50;0.90;;;20.10;98.20;;;;;;5037208;28;20623;-82
2021/06/07 08:35:31;;;;;;;1.50;0.90;;;20.20;98.20;;;;;;5050254;28;20541;-83
2021/06/07 08:37:58;;;;;;;1.50;0.90;;;20.30;98.20;;;;;;5039640;28;20482;-81
2021/06/07 08:40:25;;;;;;;1.57;0.90;;;20.40;98.20;;;;;;5050728;28;20886;-83
2021/06/07 08:42:51;;;;;;;1.50;0.90;;;20.50;98.20;;;;;;5042112;28;20482;-82
2021/06/07 08:45:19;;;;;;;1.80;1.20;;;20.50;97.90;;;;;;5052924;28;20490;-82
2021/06/07 08:47:48;;;;;;;1.50;0.90;;;20.60;98.20;;;;;;5042593;28;21136;-81
2021/06/07 08:50:16;;;;;;;1.53;0.90;;;20.60;97.40;;;;;;5053032;28;20474;-83
2021/06/07 08:52:46;;;;;;;1.50;0.90;;;20.70;97.90;;;;;;5043284;28;20553;-82
2021/06/07 08:55:15;;;;;;;1.50;0.90;;;20.70;97.60;;;;;;5059095;28;20505;-83
2021/06/07 08:57:44;;;;;;;1.50;0.90;;;20.70;97.10;;;;;;5044100;28;20482;-83
2021/06/07 09:00:13;;;;;;;1.57;1.00;;;20.80;97.60;;;;;;5059080;28;20470;-82
2021/06/07 09:02:44;;;;;;;1.50;0.90;;;20.80;96.90;;;;;;5050027;28;20486;-82
2021/06/07 09:05:13;;;;;;;1.50;0.90;;;20.90;97.00;;;;;;5055198;28;20514;-82
2021/06/07 09:07:52;;;;;;;1.50;0.90;;;21.10;95.90;;;;;;5027777;28;20488;-82
2021/06/07 09:10:19;;;;;;;1.50;0.90;;;21.10;95.90;;;;;;5051765;28;20479;-81
2021/06/07 09:12:46;;;;;;;1.70;1.23;;;21.20;95.60;;;;;;5041250;28;20478;-82
2021/06/07 09:15:25;;;;;;;1.50;0.90;;;21.50;96.10;;;;;;5053909;28;21054;-82
2021/06/07 09:17:51;;;;;;;1.53;0.90;;;21.70;95.60;;;;;;5028586;28;20478;-82
2021/06/07 09:20:21;;;;;;;1.60;1.10;;;21.90;94.20;;;;;;5062745;28;20803;-81
2021/06/07 09:22:52;;;;;;;1.53;0.90;;;22.00;93.40;;;;;;5037017;28;20501;-82
2021/06/07 09:25:20;;;;;;;1.50;0.90;;;22.10;93.80;;;;;;5064913;28;20489;-81
2021/06/07 09:28:08;;;;;;;1.60;1.03;;;22.10;93.00;;;;;;5037839;28;21225;-83
2021/06/07 09:30:37;;;;;;;1.50;1.00;;;22.00;92.70;;;;;;5061676;28;21270;-82
2021/06/07 09:33:34;;;;;;;1.50;0.90;;;21.80;93.70;;;;;;5030776;28;20487;-82
2021/06/07 09:36:18;;;;;;;1.50;0.90;;;21.70;94.00;;;;;;4982888;28;20510;-82
2021/06/07 09:39:08;;;;;;;1.50;0.90;;;21.50;94.00;;;;;;5043550;28;20604;-82
2021/06/07 09:41:52;;;;;;;1.50;0.90;;;21.30;94.50;;;;;;5036101;28;20604;-83
2021/06/07 09:44:23;;;;;;;1.53;0.90;;;21.20;94.50;;;;;;5045412;28;20507;-82
2021/06/07 09:46:51;;;;;;;1.50;0.90;;;21.10;94.90;;;;;;5043320;28;20489;-82
2021/06/07 09:49:19;;;;;;;1.50;0.90;;;21.10;94.80;;;;;;5052502;28;20473;-83
2021/06/07 09:51:56;;;;;;;1.50;0.90;;;21.00;95.50;;;;;;5046439;28;20474;-82
2021/06/07 09:54:23;;;;;;;1.50;0.90;;;20.90;95.20;;;;;;5051826;28;20497;-82
2021/06/07 09:56:52;;;;;;;1.60;1.10;;;20.90;96.10;;;;;;5057241;22;20482;-75
2021/06/07 09:59:30;;;;;;;1.50;0.90;;;20.90;95.40;;;;;;5048867;28;21141;-76
2021/06/07 10:01:57;;;;;;;1.60;1.10;;;20.90;95.70;;;;;;5050130;28;20515;-78
2021/06/07 10:04:50;;;;;;;1.50;0.90;;;21.00;95.50;;;;;;5048829;28;20564;-77
2021/06/07 10:07:18;;;;;;;1.50;0.90;;;21.00;96.00;;;;;;5015709;28;20949;-76
2021/06/07 10:10:08;;;;;;;1.50;1.00;;;21.10;95.40;;;;;;5024371;28;20953;-77
2021/06/07 10:12:34;;;;;;;1.50;0.90;;;21.20;95.90;;;;;;5014359;28;20525;-76
2021/06/07 10:15:01;;;;;;;1.50;0.90;;;21.20;95.60;;;;;;5040275;28;20532;-78
2021/06/07 10:17:27;;;;;;;1.50;0.90;;;21.30;95.20;;;;;;5020897;28;20498;-77
2021/06/07 10:20:46;;;;;;;1.50;0.90;;;21.40;95.30;;;;;;5028936;28;20463;-77
2021/06/07 10:22:47;;;;;;;1.53;1.00;;;21.40;93.90;;;;;;5026347;28;20504;-77
2021/06/07 10:25:14;;;;;;;1.50;0.90;;;21.40;94.70;;;;;;5034074;28;20467;-77
2021/06/07 10:27:40;;;;;;;1.50;0.90;;;21.40;94.10;;;;;;5024709;28;20483;-78
2021/06/07 10:30:19;;;;;;;1.50;0.90;;;21.30;94.20;;;;;;5040320;28;20470;-76
2021/06/07 10:32:46;;;;;;;2.80;1.63;;;21.30;94.30;;;;;;5020973;28;21001;-77
2021/06/07 10:35:27;;;;;;;1.50;0.90;;;21.30;94.40;;;;;;5035757;28;20885;-77
2021/06/07 10:38:07;;;;;;;1.50;0.90;;;21.30;93.40;;;;;;5024167;28;20486;-76
2021/06/07 10:40:34;;;;;;;1.50;0.80;;;21.30;93.70;;;;;;5029602;28;20474;-77
2021/06/07 10:43:03;;;;;;;1.57;1.13;;;21.20;93.60;;;;;;5027969;28;20483;-78
2021/06/07 10:45:31;;;;;;;1.50;0.83;;;21.10;93.90;;;;;;5029491;28;20471;-77
2021/06/07 10:47:59;;;;;;;1.50;0.90;;;21.10;94.80;;;;;;5016787;28;20491;-78
2021/06/07 10:50:28;;;;;;;1.50;1.00;;;21.10;94.70;;;;;;5032633;28;20463;-77
2021/06/07 10:52:57;;;;;;;1.50;0.90;;;21.10;93.60;;;;;;5006153;28;21011;-77
2021/06/07 10:55:28;;;;;;;1.50;0.90;;;21.10;94.70;;;;;;5036901;28;20804;-76
2021/06/07 10:57:57;;;;;;;1.50;0.90;;;21.20;93.90;;;;;;5016776;28;20501;-78
2021/06/07 11:00:27;;;;;;;1.50;0.90;;;21.20;93.80;;;;;;5032519;28;20470;-77
2021/06/07 11:02:56;;;;;;;1.50;0.90;;;21.20;93.90;;;;;;5010451;28;21098;-76
2021/06/07 11:05:24;;;;;;;1.50;0.90;;;21.20;94.30;;;;;;5039876;28;20589;-77
2021/06/07 11:08:05;;;;;;;1.97;1.43;;;21.10;94.60;;;;;;4999136;28;20523;-77
2021/06/07 11:10:34;;;;;;;1.50;0.90;;;21.10;94.60;;;;;;5030418;28;20459;-76
2021/06/07 11:13:02;;;;;;;1.50;0.90;;;21.10;94.40;;;;;;5004145;28;20555;-77
2021/06/07 11:15:31;;;;;;;1.50;0.90;;;21.10;94.60;;;;;;5030116;28;21471;-78
2021/06/07 11:18:20;;;;;;;1.50;0.90;;;21.10;94.50;;;;;;5016579;28;20501;-76
2021/06/07 11:20:47;;;;;;;1.50;0.90;;;21.00;94.90;;;;;;5018879;28;20467;-77
2021/06/07 11:23:16;;;;;;;1.50;0.90;;;21.00;94.60;;;;;;5019882;28;20799;-77
2021/06/07 11:25:53;;;;;;;1.50;0.90;;;21.00;94.70;;;;;;5025885;28;20557;-76
2021/06/07 11:28:39;;;;;;;1.50;0.90;;;21.00;94.20;;;;;;5008403;28;20843;-78
2021/06/07 11:31:22;;;;;;;1.50;0.90;;;21.00;94.10;;;;;;5022629;28;20861;-77
2021/06/07 11:33:51;;;;;;;1.50;0.90;;;20.90;94.30;;;;;;5037863;28;20501;-79
2021/06/07 11:36:40;;;;;;;1.50;1.00;;;20.90;94.70;;;;;;5024029;28;21134;-77
2021/06/07 11:39:08;;;;;;;1.50;0.90;;;20.90;95.10;;;;;;5035478;28;20989;-77
2021/06/07 11:41:48;;;;;;;1.50;0.90;;;20.90;95.30;;;;;;5020321;28;20482;-77
2021/06/07 11:44:16;;;;;;;1.50;0.90;;;20.90;95.10;;;;;;5031877;28;20892;-77
2021/06/07 11:46:55;;;;;;;1.50;1.00;;;20.80;93.50;;;;;;5006126;28;20492;-77
2021/06/07 11:49:22;;;;;;;1.50;0.90;;;20.80;92.70;;;;;;5030020;28;20459;-77
2021/06/07 11:52:08;;;;;;;1.50;1.00;;;20.80;93.10;;;;;;5018741;28;20499;-76
2021/06/07 11:54:52;;;;;;;1.50;0.90;;;20.80;93.90;;;;;;5031450;28;20501;-78
2021/06/07 11:57:23;;;;;;;1.50;0.90;;;20.90;94.10;;;;;;5017548;28;21048;-79
2021/06/07 11:59:55;;;;;;;1.50;1.00;;;20.90;93.80;;;;;;5031668;28;20470;-78
2021/06/07 12:02:22;;;;;;;1.50;0.90;;;21.00;92.60;;;;;;5002289;28;20475;-78
2021/06/07 12:04:49;;;;;;;1.50;1.00;;;20.90;92.50;;;;;;5021926;28;21104;-77
2021/06/07 12:07:16;;;;;;;1.60;1.13;;;20.90;92.50;;;;;;5006782;28;20577;-78
2021/06/07 12:09:48;;;;;;;1.50;0.90;;;20.90;93.00;;;;;;5032492;28;20470;-76
2021/06/07 12:12:15;;;;;;;1.50;0.90;;;21.00;92.60;;;;;;5002110;28;20549;-79
2021/06/07 12:14:45;;;;;;;1.50;0.90;;;21.00;92.80;;;;;;5033143;28;20527;-76
2021/06/07 12:17:16;;;;;;;1.50;1.00;;;21.00;92.40;;;;;;5013593;28;20487;-76
2021/06/07 12:19:44;;;;;;;1.50;0.93;;;21.00;91.80;;;;;;5040320;28;20867;-77
2021/06/07 12:22:26;;;;;;;1.50;0.80;;;21.10;91.20;;;;;;5007987;28;20481;-78
2021/06/07 12:24:58;;;;;;;1.50;0.90;;;21.10;91.80;;;;;;5034217;28;20466;-78
2021/06/07 12:30:16;;;;;;;1.50;1.00;;;21.10;91.00;;;;;;5035670;28;20478;-79
2021/06/07 12:32:43;;;;;;;1.50;0.90;;;21.10;91.70;;;;;;5013089;28;20482;-75
2021/06/07 12:35:13;;;;;;;1.50;0.90;;;21.10;92.60;;;;;;5038658;28;21036;-78
2021/06/07 12:37:43;;;;;;;3.03;1.73;;;21.20;92.90;;;;;;5027370;28;20498;-77
2021/06/07 12:40:15;;;;;;;1.50;0.90;;;21.20;92.90;;;;;;5037189;28;20466;-77
2021/06/07 12:42:44;;;;;;;2.10;1.13;;;21.30;92.60;;;;;;5028233;28;20807;-77
2021/06/07 12:45:13;;;;;;;1.50;0.90;;;21.40;92.50;;;;;;5034934;28;20513;-78
2021/06/07 12:47:42;;;;;;;1.50;0.90;;;21.40;92.60;;;;;;5026223;28;20515;-78
2021/06/07 12:50:16;;;;;;;1.50;0.90;;;21.40;91.70;;;;;;5032988;28;20547;-79
2021/06/07 12:52:47;;;;;;;1.47;0.90;;;21.30;91.10;;;;;;5014432;28;20481;-76
2021/06/07 12:55:14;;;;;;;1.50;0.90;;;21.30;91.40;;;;;;5030602;28;20455;-77
2021/06/07 12:57:41;;;;;;;1.47;0.90;;;21.30;91.80;;;;;;5024068;28;20616;-77
2021/06/07 13:00:25;;;;;;;1.50;0.90;;;21.40;91.10;;;;;;5036441;28;20500;-78
2021/06/07 13:02:53;;;;;;;1.50;0.90;;;21.30;90.60;;;;;;5019468;28;20819;-78
2021/06/07 13:05:30;;;;;;;1.57;1.07;;;21.30;90.10;;;;;;5032156;28;21277;-78